Augusta, Michigan
Current Conditions -  °F | °C
As of 5:53 AM on Saturday 01 Nov 2014 (Local Time) from KBTL Reporting Station
Overcast Overcast  
Wind Chill: 18°   Ceiling: 2800
Heat Index: 30°   Visibility: 10mi
Dew Point: 18°   Wind: 18mph
Humidity: 61%   Direction: 10°N
Pressure: 30.29"   Gusts: 25mph
Location:  42.34°N, 85.35°W
Report Text: KBTL 010953Z 01016G22KT 10SM OVC028 M01/M08 A3029 RMK AO2 SLP268 T10111078
Loading
Personal Weather Stations






























Interactive Weather Map
Tropical Storm Tracking
New forecast layout! Learn more

10-Day Weather Forecast

Advertisements
Track Severe Weather on mobile